sensor_id;sensor_type;location;lat;lon;timestamp;P1;durP1;ratioP1;P2;durP2;ratioP2
43933;SDS011;59081;42.706;23.306;2023-03-23T00:02:06;61.10;;;32.95;;
43933;SDS011;59081;42.706;23.306;2023-03-23T00:04:32;65.00;;;37.50;;
43933;SDS011;59081;42.706;23.306;2023-03-23T00:06:57;51.13;;;29.25;;
43933;SDS011;59081;42.706;23.306;2023-03-23T00:09:26;55.95;;;29.90;;
43933;SDS011;59081;42.706;23.306;2023-03-23T00:11:51;58.38;;;34.10;;
43933;SDS011;59081;42.706;23.306;2023-03-23T00:14:21;57.20;;;30.77;;
43933;SDS011;59081;42.706;23.306;2023-03-23T00:16:47;58.30;;;31.98;;
43933;SDS011;59081;42.706;23.306;2023-03-23T00:19:14;58.63;;;31.38;;
43933;SDS011;59081;42.706;23.306;2023-03-23T00:21:41;56.65;;;31.92;;
43933;SDS011;59081;42.706;23.306;2023-03-23T00:26:47;57.67;;;31.33;;
43933;SDS011;59081;42.706;23.306;2023-03-23T00:29:15;56.75;;;32.35;;
43933;SDS011;59081;42.706;23.306;2023-03-23T00:31:44;57.58;;;33.08;;
43933;SDS011;59081;42.706;23.306;2023-03-23T00:34:14;56.25;;;31.88;;
43933;SDS011;59081;42.706;23.306;2023-03-23T00:36:45;57.15;;;30.67;;
43933;SDS011;59081;42.706;23.306;2023-03-23T00:39:11;57.88;;;31.08;;
43933;SDS011;59081;42.706;23.306;2023-03-23T00:41:37;56.47;;;34.28;;
43933;SDS011;59081;42.706;23.306;2023-03-23T00:44:03;55.92;;;31.63;;
43933;SDS011;59081;42.706;23.306;2023-03-23T00:46:29;51.58;;;30.63;;
43933;SDS011;59081;42.706;23.306;2023-03-23T00:48:55;51.50;;;29.50;;
43933;SDS011;59081;42.706;23.306;2023-03-23T00:51:22;47.35;;;27.98;;
43933;SDS011;59081;42.706;23.306;2023-03-23T00:53:48;53.55;;;30.13;;
43933;SDS011;59081;42.706;23.306;2023-03-23T00:56:13;50.67;;;29.48;;
43933;SDS011;59081;42.706;23.306;2023-03-23T00:58:40;56.85;;;28.73;;
43933;SDS011;59081;42.706;23.306;2023-03-23T01:01:06;50.20;;;29.98;;
43933;SDS011;59081;42.706;23.306;2023-03-23T01:03:32;53.22;;;27.60;;
43933;SDS011;59081;42.706;23.306;2023-03-23T01:06:03;50.60;;;28.05;;
43933;SDS011;59081;42.706;23.306;2023-03-23T01:08:30;53.40;;;29.80;;
43933;SDS011;59081;42.706;23.306;2023-03-23T01:11:01;54.38;;;30.08;;
43933;SDS011;59081;42.706;23.306;2023-03-23T01:13:28;52.03;;;29.45;;
43933;SDS011;59081;42.706;23.306;2023-03-23T01:15:54;47.50;;;27.05;;
43933;SDS011;59081;42.706;23.306;2023-03-23T01:18:19;46.83;;;26.60;;
43933;SDS011;59081;42.706;23.306;2023-03-23T01:20:45;48.55;;;26.33;;
43933;SDS011;59081;42.706;23.306;2023-03-23T01:23:10;43.88;;;23.27;;
43933;SDS011;59081;42.706;23.306;2023-03-23T01:25:35;47.83;;;25.63;;
43933;SDS011;59081;42.706;23.306;2023-03-23T01:28:01;53.00;;;29.40;;
43933;SDS011;59081;42.706;23.306;2023-03-23T01:30:27;54.88;;;27.90;;
43933;SDS011;59081;42.706;23.306;2023-03-23T01:32:53;54.13;;;28.08;;
43933;SDS011;59081;42.706;23.306;2023-03-23T01:35:20;44.55;;;22.60;;
43933;SDS011;59081;42.706;23.306;2023-03-23T01:37:46;54.22;;;28.95;;
43933;SDS011;59081;42.706;23.306;2023-03-23T01:40:12;55.65;;;27.98;;
43933;SDS011;59081;42.706;23.306;2023-03-23T01:42:38;53.15;;;30.90;;
43933;SDS011;59081;42.706;23.306;2023-03-23T01:48:27;56.17;;;28.67;;
43933;SDS011;59081;42.706;23.306;2023-03-23T01:51:03;53.65;;;28.25;;
43933;SDS011;59081;42.706;23.306;2023-03-23T01:56:03;59.72;;;30.17;;
43933;SDS011;59081;42.706;23.306;2023-03-23T01:58:32;54.55;;;27.42;;
43933;SDS011;59081;42.706;23.306;2023-03-23T02:01:02;51.47;;;25.73;;
43933;SDS011;59081;42.706;23.306;2023-03-23T02:03:31;44.50;;;23.70;;
43933;SDS011;59081;42.706;23.306;2023-03-23T02:05:57;55.47;;;27.23;;
43933;SDS011;59081;42.706;23.306;2023-03-23T02:08:27;54.90;;;29.80;;
43933;SDS011;59081;42.706;23.306;2023-03-23T02:10:55;50.83;;;26.70;;
43933;SDS011;59081;42.706;23.306;2023-03-23T02:13:20;51.20;;;26.92;;
43933;SDS011;59081;42.706;23.306;2023-03-23T02:21:02;53.95;;;28.80;;
43933;SDS011;59081;42.706;23.306;2023-03-23T02:23:48;51.85;;;28.38;;
43933;SDS011;59081;42.706;23.306;2023-03-23T02:37:09;44.50;;;24.75;;
43933;SDS011;59081;42.706;23.306;2023-03-23T02:39:43;44.55;;;25.10;;
43933;SDS011;59081;42.706;23.306;2023-03-23T02:42:34;45.30;;;27.13;;
43933;SDS011;59081;42.706;23.306;2023-03-23T02:45:04;47.08;;;24.35;;
43933;SDS011;59081;42.706;23.306;2023-03-23T02:47:33;43.80;;;25.13;;
43933;SDS011;59081;42.706;23.306;2023-03-23T02:50:02;43.65;;;25.05;;
43933;SDS011;59081;42.706;23.306;2023-03-23T02:52:31;47.00;;;25.92;;
43933;SDS011;59081;42.706;23.306;2023-03-23T02:54:59;45.05;;;24.92;;
43933;SDS011;59081;42.706;23.306;2023-03-23T02:57:27;45.30;;;23.67;;
43933;SDS011;59081;42.706;23.306;2023-03-23T02:59:53;42.45;;;22.52;;
43933;SDS011;59081;42.706;23.306;2023-03-23T03:02:29;37.05;;;20.65;;
43933;SDS011;59081;42.706;23.306;2023-03-23T03:05:03;34.38;;;19.75;;
43933;SDS011;59081;42.706;23.306;2023-03-23T03:15:36;34.08;;;19.27;;
43933;SDS011;59081;42.706;23.306;2023-03-23T03:20:32;25.98;;;14.80;;
43933;SDS011;59081;42.706;23.306;2023-03-23T03:23:03;22.70;;;14.18;;
43933;SDS011;59081;42.706;23.306;2023-03-23T03:25:32;27.05;;;14.80;;
43933;SDS011;59081;42.706;23.306;2023-03-23T03:27:58;20.83;;;12.00;;
43933;SDS011;59081;42.706;23.306;2023-03-23T03:30:26;22.67;;;12.68;;
43933;SDS011;59081;42.706;23.306;2023-03-23T03:32:55;22.33;;;12.52;;
43933;SDS011;59081;42.706;23.306;2023-03-23T03:35:22;22.67;;;12.07;;
43933;SDS011;59081;42.706;23.306;2023-03-23T03:37:48;22.40;;;12.60;;
43933;SDS011;59081;42.706;23.306;2023-03-23T03:40:16;22.08;;;13.10;;
43933;SDS011;59081;42.706;23.306;2023-03-23T03:42:43;19.90;;;11.90;;
43933;SDS011;59081;42.706;23.306;2023-03-23T03:45:14;21.13;;;12.95;;
43933;SDS011;59081;42.706;23.306;2023-03-23T03:50:07;18.33;;;11.82;;
43933;SDS011;59081;42.706;23.306;2023-03-23T03:52:33;21.23;;;12.75;;
43933;SDS011;59081;42.706;23.306;2023-03-23T03:55:00;20.77;;;12.40;;
43933;SDS011;59081;42.706;23.306;2023-03-23T03:57:26;20.20;;;13.55;;
43933;SDS011;59081;42.706;23.306;2023-03-23T03:59:53;19.27;;;12.18;;
43933;SDS011;59081;42.706;23.306;2023-03-23T04:02:19;29.50;;;14.05;;
43933;SDS011;59081;42.706;23.306;2023-03-23T04:04:48;33.72;;;15.98;;
43933;SDS011;59081;42.706;23.306;2023-03-23T04:07:15;28.27;;;14.05;;
43933;SDS011;59081;42.706;23.306;2023-03-23T04:09:44;23.33;;;13.38;;
43933;SDS011;59081;42.706;23.306;2023-03-23T04:12:11;23.52;;;13.50;;
43933;SDS011;59081;42.706;23.306;2023-03-23T04:14:37;26.27;;;13.50;;
43933;SDS011;59081;42.706;23.306;2023-03-23T04:17:03;26.23;;;13.63;;
43933;SDS011;59081;42.706;23.306;2023-03-23T04:19:29;24.45;;;13.60;;
43933;SDS011;59081;42.706;23.306;2023-03-23T04:21:57;29.23;;;12.63;;
43933;SDS011;59081;42.706;23.306;2023-03-23T04:24:24;21.70;;;12.52;;
43933;SDS011;59081;42.706;23.306;2023-03-23T04:26:49;21.63;;;11.98;;
43933;SDS011;59081;42.706;23.306;2023-03-23T04:29:19;20.98;;;13.25;;
43933;SDS011;59081;42.706;23.306;2023-03-23T04:31:45;26.38;;;14.57;;
43933;SDS011;59081;42.706;23.306;2023-03-23T04:34:10;35.85;;;18.52;;
43933;SDS011;59081;42.706;23.306;2023-03-23T04:36:39;35.45;;;17.80;;
43933;SDS011;59081;42.706;23.306;2023-03-23T04:39:06;28.58;;;16.35;;
43933;SDS011;59081;42.706;23.306;2023-03-23T04:41:34;27.23;;;16.42;;
43933;SDS011;59081;42.706;23.306;2023-03-23T04:44:03;27.90;;;14.77;;
43933;SDS011;59081;42.706;23.306;2023-03-23T04:46:29;26.95;;;15.43;;
43933;SDS011;59081;42.706;23.306;2023-03-23T04:48:55;23.25;;;13.40;;
43933;SDS011;59081;42.706;23.306;2023-03-23T04:51:23;28.55;;;16.75;;
43933;SDS011;59081;42.706;23.306;2023-03-23T04:53:51;25.48;;;14.65;;
43933;SDS011;59081;42.706;23.306;2023-03-23T04:56:17;25.80;;;16.20;;
43933;SDS011;59081;42.706;23.306;2023-03-23T04:58:43;27.15;;;16.90;;
43933;SDS011;59081;42.706;23.306;2023-03-23T05:01:10;25.73;;;15.63;;
43933;SDS011;59081;42.706;23.306;2023-03-23T05:03:39;28.27;;;15.60;;
43933;SDS011;59081;42.706;23.306;2023-03-23T05:06:05;34.95;;;16.80;;
43933;SDS011;59081;42.706;23.306;2023-03-23T05:08:31;30.90;;;17.50;;
43933;SDS011;59081;42.706;23.306;2023-03-23T05:10:58;29.27;;;17.67;;
43933;SDS011;59081;42.706;23.306;2023-03-23T05:13:25;36.13;;;20.95;;
43933;SDS011;59081;42.706;23.306;2023-03-23T05:15:53;37.50;;;21.73;;
43933;SDS011;59081;42.706;23.306;2023-03-23T05:18:18;39.45;;;23.20;;
43933;SDS011;59081;42.706;23.306;2023-03-23T05:20:45;43.78;;;24.52;;
43933;SDS011;59081;42.706;23.306;2023-03-23T05:23:12;47.78;;;25.60;;
43933;SDS011;59081;42.706;23.306;2023-03-23T05:25:38;46.70;;;27.00;;
43933;SDS011;59081;42.706;23.306;2023-03-23T05:28:07;47.58;;;24.00;;
43933;SDS011;59081;42.706;23.306;2023-03-23T05:30:36;45.40;;;25.17;;
43933;SDS011;59081;42.706;23.306;2023-03-23T05:33:03;41.22;;;24.88;;
43933;SDS011;59081;42.706;23.306;2023-03-23T05:35:29;44.33;;;25.33;;
43933;SDS011;59081;42.706;23.306;2023-03-23T05:37:55;45.30;;;27.25;;
43933;SDS011;59081;42.706;23.306;2023-03-23T05:40:22;43.63;;;23.88;;
43933;SDS011;59081;42.706;23.306;2023-03-23T05:42:50;40.10;;;23.38;;
43933;SDS011;59081;42.706;23.306;2023-03-23T05:45:16;49.85;;;24.73;;
43933;SDS011;59081;42.706;23.306;2023-03-23T05:47:41;39.08;;;22.63;;
43933;SDS011;59081;42.706;23.306;2023-03-23T05:50:07;41.83;;;23.00;;
43933;SDS011;59081;42.706;23.306;2023-03-23T05:52:37;50.65;;;28.02;;
43933;SDS011;59081;42.706;23.306;2023-03-23T05:55:04;44.53;;;26.85;;
43933;SDS011;59081;42.706;23.306;2023-03-23T05:57:30;54.00;;;26.15;;
43933;SDS011;59081;42.706;23.306;2023-03-23T05:59:56;44.70;;;25.08;;
43933;SDS011;59081;42.706;23.306;2023-03-23T06:02:23;50.72;;;28.95;;
43933;SDS011;59081;42.706;23.306;2023-03-23T06:04:49;61.25;;;33.35;;
43933;SDS011;59081;42.706;23.306;2023-03-23T06:07:22;67.30;;;35.60;;
43933;SDS011;59081;42.706;23.306;2023-03-23T06:09:49;54.42;;;32.30;;
43933;SDS011;59081;42.706;23.306;2023-03-23T06:12:16;53.50;;;31.98;;
43933;SDS011;59081;42.706;23.306;2023-03-23T06:14:45;63.47;;;30.25;;
43933;SDS011;59081;42.706;23.306;2023-03-23T06:17:11;58.10;;;30.77;;
43933;SDS011;59081;42.706;23.306;2023-03-23T06:19:37;55.58;;;30.30;;
43933;SDS011;59081;42.706;23.306;2023-03-23T06:22:02;51.08;;;28.38;;
43933;SDS011;59081;42.706;23.306;2023-03-23T06:24:28;47.40;;;29.10;;
43933;SDS011;59081;42.706;23.306;2023-03-23T06:26:54;53.70;;;30.63;;
43933;SDS011;59081;42.706;23.306;2023-03-23T06:29:19;49.67;;;31.27;;
43933;SDS011;59081;42.706;23.306;2023-03-23T06:31:47;48.38;;;28.33;;
43933;SDS011;59081;42.706;23.306;2023-03-23T06:34:15;51.88;;;30.45;;
43933;SDS011;59081;42.706;23.306;2023-03-23T06:36:41;50.30;;;28.40;;
43933;SDS011;59081;42.706;23.306;2023-03-23T06:39:09;46.85;;;27.80;;
43933;SDS011;59081;42.706;23.306;2023-03-23T06:41:36;48.97;;;29.27;;
43933;SDS011;59081;42.706;23.306;2023-03-23T06:44:01;50.80;;;29.48;;
43933;SDS011;59081;42.706;23.306;2023-03-23T06:46:27;49.03;;;27.15;;
43933;SDS011;59081;42.706;23.306;2023-03-23T06:48:53;51.53;;;27.38;;
43933;SDS011;59081;42.706;23.306;2023-03-23T06:51:19;43.83;;;26.58;;
43933;SDS011;59081;42.706;23.306;2023-03-23T06:53:46;54.58;;;27.25;;
43933;SDS011;59081;42.706;23.306;2023-03-23T06:56:11;44.22;;;26.00;;
43933;SDS011;59081;42.706;23.306;2023-03-23T06:58:38;48.30;;;26.05;;
43933;SDS011;59081;42.706;23.306;2023-03-23T07:01:04;39.47;;;24.55;;
43933;SDS011;59081;42.706;23.306;2023-03-23T07:03:30;47.08;;;23.90;;
43933;SDS011;59081;42.706;23.306;2023-03-23T07:05:56;36.08;;;22.23;;
43933;SDS011;59081;42.706;23.306;2023-03-23T07:08:23;38.42;;;21.65;;
43933;SDS011;59081;42.706;23.306;2023-03-23T07:10:52;45.45;;;24.45;;
43933;SDS011;59081;42.706;23.306;2023-03-23T07:13:19;38.33;;;22.70;;
43933;SDS011;59081;42.706;23.306;2023-03-23T07:15:45;35.55;;;21.25;;
43933;SDS011;59081;42.706;23.306;2023-03-23T07:18:11;35.38;;;21.77;;
43933;SDS011;59081;42.706;23.306;2023-03-23T07:20:37;48.60;;;25.90;;
43933;SDS011;59081;42.706;23.306;2023-03-23T07:23:02;38.53;;;21.65;;
43933;SDS011;59081;42.706;23.306;2023-03-23T07:25:30;41.28;;;22.35;;
43933;SDS011;59081;42.706;23.306;2023-03-23T07:27:58;32.20;;;21.23;;
43933;SDS011;59081;42.706;23.306;2023-03-23T07:30:27;40.53;;;22.30;;
43933;SDS011;59081;42.706;23.306;2023-03-23T07:32:54;37.42;;;22.20;;
43933;SDS011;59081;42.706;23.306;2023-03-23T07:35:20;36.53;;;22.48;;
43933;SDS011;59081;42.706;23.306;2023-03-23T07:37:46;35.60;;;22.70;;
43933;SDS011;59081;42.706;23.306;2023-03-23T07:40:14;37.70;;;21.48;;
43933;SDS011;59081;42.706;23.306;2023-03-23T07:42:44;36.70;;;24.48;;
43933;SDS011;59081;42.706;23.306;2023-03-23T07:45:14;52.72;;;24.05;;
43933;SDS011;59081;42.706;23.306;2023-03-23T07:47:40;44.05;;;23.98;;
43933;SDS011;59081;42.706;23.306;2023-03-23T07:50:07;34.88;;;21.55;;
43933;SDS011;59081;42.706;23.306;2023-03-23T07:52:34;33.42;;;21.52;;
43933;SDS011;59081;42.706;23.306;2023-03-23T07:55:00;39.47;;;22.52;;
43933;SDS011;59081;42.706;23.306;2023-03-23T07:57:27;41.60;;;24.02;;
43933;SDS011;59081;42.706;23.306;2023-03-23T07:59:53;37.15;;;21.13;;
43933;SDS011;59081;42.706;23.306;2023-03-23T08:02:18;39.00;;;23.10;;
43933;SDS011;59081;42.706;23.306;2023-03-23T08:04:44;49.70;;;21.67;;
43933;SDS011;59081;42.706;23.306;2023-03-23T08:07:10;38.63;;;20.98;;
43933;SDS011;59081;42.706;23.306;2023-03-23T08:09:38;38.13;;;22.17;;
43933;SDS011;59081;42.706;23.306;2023-03-23T08:12:04;35.80;;;19.02;;
43933;SDS011;59081;42.706;23.306;2023-03-23T08:14:30;34.55;;;18.80;;
43933;SDS011;59081;42.706;23.306;2023-03-23T08:16:56;21.77;;;15.15;;
43933;SDS011;59081;42.706;23.306;2023-03-23T08:19:22;27.65;;;15.10;;
43933;SDS011;59081;42.706;23.306;2023-03-23T08:21:48;22.48;;;14.68;;
43933;SDS011;59081;42.706;23.306;2023-03-23T08:24:17;22.27;;;14.70;;
43933;SDS011;59081;42.706;23.306;2023-03-23T08:26:43;29.17;;;17.27;;
43933;SDS011;59081;42.706;23.306;2023-03-23T08:29:09;23.75;;;15.25;;
43933;SDS011;59081;42.706;23.306;2023-03-23T08:31:35;27.13;;;15.82;;
43933;SDS011;59081;42.706;23.306;2023-03-23T08:34:02;20.02;;;13.05;;
43933;SDS011;59081;42.706;23.306;2023-03-23T08:36:29;20.42;;;14.13;;
43933;SDS011;59081;42.706;23.306;2023-03-23T08:38:56;24.38;;;13.85;;
43933;SDS011;59081;42.706;23.306;2023-03-23T08:41:23;24.42;;;14.07;;
43933;SDS011;59081;42.706;23.306;2023-03-23T08:43:49;21.83;;;12.65;;
43933;SDS011;59081;42.706;23.306;2023-03-23T08:46:15;20.83;;;12.23;;
43933;SDS011;59081;42.706;23.306;2023-03-23T08:48:41;15.18;;;9.20;;
43933;SDS011;59081;42.706;23.306;2023-03-23T08:51:08;9.70;;;7.28;;
43933;SDS011;59081;42.706;23.306;2023-03-23T08:53:35;22.85;;;13.00;;
43933;SDS011;59081;42.706;23.306;2023-03-23T08:56:07;20.20;;;12.70;;
43933;SDS011;59081;42.706;23.306;2023-03-23T08:58:34;22.88;;;12.85;;
43933;SDS011;59081;42.706;23.306;2023-03-23T09:01:01;18.95;;;9.77;;
43933;SDS011;59081;42.706;23.306;2023-03-23T09:03:27;10.98;;;7.90;;
43933;SDS011;59081;42.706;23.306;2023-03-23T09:05:53;13.48;;;7.70;;
43933;SDS011;59081;42.706;23.306;2023-03-23T09:08:19;13.07;;;6.97;;
43933;SDS011;59081;42.706;23.306;2023-03-23T09:10:45;13.45;;;7.88;;
43933;SDS011;59081;42.706;23.306;2023-03-23T09:13:10;14.73;;;9.43;;
43933;SDS011;59081;42.706;23.306;2023-03-23T09:15:36;15.57;;;8.38;;
43933;SDS011;59081;42.706;23.306;2023-03-23T09:18:01;12.07;;;8.27;;
43933;SDS011;59081;42.706;23.306;2023-03-23T09:20:28;12.50;;;7.93;;
43933;SDS011;59081;42.706;23.306;2023-03-23T09:22:55;13.82;;;9.10;;
43933;SDS011;59081;42.706;23.306;2023-03-23T09:25:23;12.43;;;9.13;;
43933;SDS011;59081;42.706;23.306;2023-03-23T09:27:54;11.23;;;7.88;;
43933;SDS011;59081;42.706;23.306;2023-03-23T09:30:22;6.93;;;4.88;;
43933;SDS011;59081;42.706;23.306;2023-03-23T09:32:56;9.57;;;4.88;;
43933;SDS011;59081;42.706;23.306;2023-03-23T09:35:22;12.85;;;7.40;;
43933;SDS011;59081;42.706;23.306;2023-03-23T09:37:49;11.18;;;7.38;;
43933;SDS011;59081;42.706;23.306;2023-03-23T09:40:18;9.82;;;7.07;;
43933;SDS011;59081;42.706;23.306;2023-03-23T09:48:31;10.05;;;6.35;;
43933;SDS011;59081;42.706;23.306;2023-03-23T09:51:11;11.02;;;7.65;;
43933;SDS011;59081;42.706;23.306;2023-03-23T09:53:53;10.32;;;7.28;;
43933;SDS011;59081;42.706;23.306;2023-03-23T09:56:22;9.20;;;6.75;;
43933;SDS011;59081;42.706;23.306;2023-03-23T09:59:00;8.00;;;5.85;;
43933;SDS011;59081;42.706;23.306;2023-03-23T10:01:31;10.75;;;5.82;;
43933;SDS011;59081;42.706;23.306;2023-03-23T10:06:40;11.10;;;7.00;;
43933;SDS011;59081;42.706;23.306;2023-03-23T10:09:05;14.50;;;6.03;;
43933;SDS011;59081;42.706;23.306;2023-03-23T10:17:34;9.27;;;5.55;;
43933;SDS011;59081;42.706;23.306;2023-03-23T10:25:35;10.43;;;6.45;;
43933;SDS011;59081;42.706;23.306;2023-03-23T10:28:18;10.20;;;6.07;;
43933;SDS011;59081;42.706;23.306;2023-03-23T10:30:53;9.60;;;6.28;;
43933;SDS011;59081;42.706;23.306;2023-03-23T10:38:48;10.88;;;7.03;;
43933;SDS011;59081;42.706;23.306;2023-03-23T10:41:19;10.05;;;6.10;;
43933;SDS011;59081;42.706;23.306;2023-03-23T10:43:46;10.57;;;7.25;;
43933;SDS011;59081;42.706;23.306;2023-03-23T10:46:36;10.98;;;7.50;;
43933;SDS011;59081;42.706;23.306;2023-03-23T10:49:04;10.30;;;6.88;;
43933;SDS011;59081;42.706;23.306;2023-03-23T10:51:37;10.82;;;7.63;;
43933;SDS011;59081;42.706;23.306;2023-03-23T10:54:06;10.15;;;7.47;;
43933;SDS011;59081;42.706;23.306;2023-03-23T10:56:36;8.35;;;6.63;;
43933;SDS011;59081;42.706;23.306;2023-03-23T10:59:26;9.73;;;6.30;;
43933;SDS011;59081;42.706;23.306;2023-03-23T11:01:54;12.45;;;6.07;;
43933;SDS011;59081;42.706;23.306;2023-03-23T11:04:23;8.93;;;6.68;;
43933;SDS011;59081;42.706;23.306;2023-03-23T11:06:50;8.35;;;5.82;;
43933;SDS011;59081;42.706;23.306;2023-03-23T11:09:21;13.13;;;6.35;;
43933;SDS011;59081;42.706;23.306;2023-03-23T11:12:15;10.48;;;6.95;;
43933;SDS011;59081;42.706;23.306;2023-03-23T11:14:42;12.00;;;5.72;;
43933;SDS011;59081;42.706;23.306;2023-03-23T11:17:25;11.68;;;7.70;;
43933;SDS011;59081;42.706;23.306;2023-03-23T11:19:52;12.05;;;5.80;;
43933;SDS011;59081;42.706;23.306;2023-03-23T11:22:31;8.70;;;5.85;;
43933;SDS011;59081;42.706;23.306;2023-03-23T11:25:02;8.80;;;6.47;;
43933;SDS011;59081;42.706;23.306;2023-03-23T11:27:29;20.70;;;6.32;;
43933;SDS011;59081;42.706;23.306;2023-03-23T11:29:59;12.98;;;6.30;;
43933;SDS011;59081;42.706;23.306;2023-03-23T11:32:33;6.75;;;4.35;;
43933;SDS011;59081;42.706;23.306;2023-03-23T11:35:02;10.30;;;6.85;;
43933;SDS011;59081;42.706;23.306;2023-03-23T11:37:43;9.98;;;6.53;;
43933;SDS011;59081;42.706;23.306;2023-03-23T11:40:17;7.93;;;6.28;;
43933;SDS011;59081;42.706;23.306;2023-03-23T11:42:47;8.45;;;6.28;;
43933;SDS011;59081;42.706;23.306;2023-03-23T11:50:28;10.40;;;6.45;;
43933;SDS011;59081;42.706;23.306;2023-03-23T11:53:41;7.18;;;4.63;;
43933;SDS011;59081;42.706;23.306;2023-03-23T11:56:47;9.25;;;6.35;;
43933;SDS011;59081;42.706;23.306;2023-03-23T11:58:59;9.50;;;5.43;;
43933;SDS011;59081;42.706;23.306;2023-03-23T12:04:33;10.88;;;6.75;;
43933;SDS011;59081;42.706;23.306;2023-03-23T12:13:34;8.18;;;5.35;;
43933;SDS011;59081;42.706;23.306;2023-03-23T12:16:24;8.75;;;5.43;;
43933;SDS011;59081;42.706;23.306;2023-03-23T12:22:16;7.53;;;5.32;;
43933;SDS011;59081;42.706;23.306;2023-03-23T12:33:13;6.10;;;4.90;;
43933;SDS011;59081;42.706;23.306;2023-03-23T12:36:06;5.80;;;3.97;;
43933;SDS011;59081;42.706;23.306;2023-03-23T12:44:10;8.52;;;6.10;;
43933;SDS011;59081;42.706;23.306;2023-03-23T12:49:36;7.60;;;4.53;;
43933;SDS011;59081;42.706;23.306;2023-03-23T12:54:40;5.55;;;4.95;;
43933;SDS011;59081;42.706;23.306;2023-03-23T13:00:16;6.50;;;4.95;;
43933;SDS011;59081;42.706;23.306;2023-03-23T13:02:46;6.43;;;4.75;;
43933;SDS011;59081;42.706;23.306;2023-03-23T13:21:29;5.18;;;4.38;;
43933;SDS011;59081;42.706;23.306;2023-03-23T13:24:16;5.47;;;4.50;;
43933;SDS011;59081;42.706;23.306;2023-03-23T13:26:50;6.93;;;4.35;;
43933;SDS011;59081;42.706;23.306;2023-03-23T13:29:18;6.95;;;4.68;;
43933;SDS011;59081;42.706;23.306;2023-03-23T13:31:46;5.53;;;3.97;;
43933;SDS011;59081;42.706;23.306;2023-03-23T13:34:22;6.47;;;4.60;;
43933;SDS011;59081;42.706;23.306;2023-03-23T13:36:57;5.88;;;3.92;;
43933;SDS011;59081;42.706;23.306;2023-03-23T13:39:26;8.15;;;5.25;;
43933;SDS011;59081;42.706;23.306;2023-03-23T13:44:57;8.68;;;4.88;;
43933;SDS011;59081;42.706;23.306;2023-03-23T13:47:39;7.25;;;4.85;;
43933;SDS011;59081;42.706;23.306;2023-03-23T13:50:25;7.35;;;5.13;;
43933;SDS011;59081;42.706;23.306;2023-03-23T13:52:58;7.07;;;5.10;;
43933;SDS011;59081;42.706;23.306;2023-03-23T13:55:47;9.15;;;4.63;;
43933;SDS011;59081;42.706;23.306;2023-03-23T13:58:49;9.07;;;4.18;;
43933;SDS011;59081;42.706;23.306;2023-03-23T14:03:58;6.70;;;4.90;;
43933;SDS011;59081;42.706;23.306;2023-03-23T14:06:33;9.73;;;5.30;;
43933;SDS011;59081;42.706;23.306;2023-03-23T14:09:05;6.53;;;5.13;;
43933;SDS011;59081;42.706;23.306;2023-03-23T14:11:44;9.43;;;5.47;;
43933;SDS011;59081;42.706;23.306;2023-03-23T14:14:29;7.78;;;4.15;;
43933;SDS011;59081;42.706;23.306;2023-03-23T14:17:13;8.23;;;4.13;;
43933;SDS011;59081;42.706;23.306;2023-03-23T14:19:42;10.52;;;5.22;;
43933;SDS011;59081;42.706;23.306;2023-03-23T14:22:19;8.00;;;4.75;;
43933;SDS011;59081;42.706;23.306;2023-03-23T14:24:47;8.18;;;4.30;;
43933;SDS011;59081;42.706;23.306;2023-03-23T14:27:17;7.68;;;5.15;;
43933;SDS011;59081;42.706;23.306;2023-03-23T14:29:46;7.68;;;5.22;;
43933;SDS011;59081;42.706;23.306;2023-03-23T14:32:25;9.93;;;5.15;;
43933;SDS011;59081;42.706;23.306;2023-03-23T14:34:54;6.72;;;4.43;;
43933;SDS011;59081;42.706;23.306;2023-03-23T14:37:20;7.93;;;4.85;;
43933;SDS011;59081;42.706;23.306;2023-03-23T14:39:51;8.25;;;4.50;;
43933;SDS011;59081;42.706;23.306;2023-03-23T14:42:22;5.80;;;4.40;;
43933;SDS011;59081;42.706;23.306;2023-03-23T14:44:54;6.10;;;4.13;;
43933;SDS011;59081;42.706;23.306;2023-03-23T14:47:20;7.90;;;5.13;;
43933;SDS011;59081;42.706;23.306;2023-03-23T14:50:29;8.43;;;4.65;;
43933;SDS011;59081;42.706;23.306;2023-03-23T14:53:19;13.93;;;5.88;;
43933;SDS011;59081;42.706;23.306;2023-03-23T14:55:59;6.03;;;4.47;;
43933;SDS011;59081;42.706;23.306;2023-03-23T14:58:30;7.03;;;4.90;;
43933;SDS011;59081;42.706;23.306;2023-03-23T15:03:26;7.70;;;4.78;;
43933;SDS011;59081;42.706;23.306;2023-03-23T15:05:58;6.05;;;4.50;;
43933;SDS011;59081;42.706;23.306;2023-03-23T15:08:28;9.25;;;5.30;;
43933;SDS011;59081;42.706;23.306;2023-03-23T15:11:31;6.35;;;4.60;;
43933;SDS011;59081;42.706;23.306;2023-03-23T15:13:53;6.07;;;4.32;;
43933;SDS011;59081;42.706;23.306;2023-03-23T15:16:31;7.50;;;4.97;;
43933;SDS011;59081;42.706;23.306;2023-03-23T15:18:59;8.18;;;5.05;;
43933;SDS011;59081;42.706;23.306;2023-03-23T15:21:28;8.25;;;5.22;;
43933;SDS011;59081;42.706;23.306;2023-03-23T15:23:56;9.10;;;5.18;;
43933;SDS011;59081;42.706;23.306;2023-03-23T15:28:58;9.00;;;6.13;;
43933;SDS011;59081;42.706;23.306;2023-03-23T15:31:45;8.45;;;5.18;;
43933;SDS011;59081;42.706;23.306;2023-03-23T15:34:34;7.72;;;5.35;;
43933;SDS011;59081;42.706;23.306;2023-03-23T15:39:57;8.65;;;5.75;;
43933;SDS011;59081;42.706;23.306;2023-03-23T15:42:29;8.27;;;5.30;;
43933;SDS011;59081;42.706;23.306;2023-03-23T15:44:58;11.63;;;5.95;;
43933;SDS011;59081;42.706;23.306;2023-03-23T15:47:35;8.98;;;6.25;;
43933;SDS011;59081;42.706;23.306;2023-03-23T15:50:08;15.20;;;6.07;;
43933;SDS011;59081;42.706;23.306;2023-03-23T15:52:38;8.02;;;5.63;;
43933;SDS011;59081;42.706;23.306;2023-03-23T15:55:15;8.98;;;6.03;;
43933;SDS011;59081;42.706;23.306;2023-03-23T15:57:54;8.45;;;5.10;;
43933;SDS011;59081;42.706;23.306;2023-03-23T16:00:23;8.30;;;5.88;;
43933;SDS011;59081;42.706;23.306;2023-03-23T16:02:52;10.68;;;4.88;;
43933;SDS011;59081;42.706;23.306;2023-03-23T16:05:23;7.13;;;5.72;;
43933;SDS011;59081;42.706;23.306;2023-03-23T16:07:49;9.38;;;6.45;;
43933;SDS011;59081;42.706;23.306;2023-03-23T16:10:16;8.73;;;5.85;;
43933;SDS011;59081;42.706;23.306;2023-03-23T16:12:44;9.73;;;6.10;;
43933;SDS011;59081;42.706;23.306;2023-03-23T16:15:10;8.48;;;5.22;;
43933;SDS011;59081;42.706;23.306;2023-03-23T16:17:37;8.73;;;4.97;;
43933;SDS011;59081;42.706;23.306;2023-03-23T16:20:18;9.68;;;5.95;;
43933;SDS011;59081;42.706;23.306;2023-03-23T16:22:45;8.73;;;5.20;;
43933;SDS011;59081;42.706;23.306;2023-03-23T16:25:12;10.48;;;6.00;;
43933;SDS011;59081;42.706;23.306;2023-03-23T16:27:46;9.70;;;5.93;;
43933;SDS011;59081;42.706;23.306;2023-03-23T16:30:27;12.07;;;6.45;;
43933;SDS011;59081;42.706;23.306;2023-03-23T16:32:59;11.15;;;5.60;;
43933;SDS011;59081;42.706;23.306;2023-03-23T16:35:25;8.57;;;6.10;;
43933;SDS011;59081;42.706;23.306;2023-03-23T16:37:51;11.68;;;6.50;;
43933;SDS011;59081;42.706;23.306;2023-03-23T16:40:19;8.68;;;5.55;;
43933;SDS011;59081;42.706;23.306;2023-03-23T16:42:46;10.02;;;6.13;;
43933;SDS011;59081;42.706;23.306;2023-03-23T16:45:15;11.23;;;7.00;;
43933;SDS011;59081;42.706;23.306;2023-03-23T16:47:42;12.00;;;6.50;;